KMSS/MSS METAR and TAF weather

Enter ICAO airport designator
Station Type Date Time Source
KMSS METAR 2018/12/15 01:53 UTC NOAA

KMSS 150153Z AUTO 22004KT 6SM BR OVC036 03/03 A3013 RMK AO2 RAE14B42E53 SLP208 P0000 T00330033


Station Type Date Time Source
KMSS Decoded METAR 2018/12/15 01:53 UTC NOAA

MASSENA INTERNATIONAL -RICHARDS FLD, NY, United States (KMSS) 44-56N 074-51W 66M
Dec 14, 2018 - 08:53 PM EST / 2018.12.15 0153 UTC
Wind: from the SW (220 degrees) at 5 MPH (4 KT):0
Visibility: 6 mile(s):0
Sky conditions: overcast
Weather: mist
Precipitation last hour: A trace
Temperature: 37.9 F (3.3 C)
Dew Point: 37.9 F (3.3 C)
Relative Humidity: 100%
Pressure (altimeter): 30.13 in. Hg (1020 hPa)
ob: KMSS 150153Z AUTO 22004KT 6SM BR OVC036 03/03 A3013 RMK AO2 RAE14B42E53 SLP208 P0000 T00330033
cycle: 2

Station Type Date Time Source
KMSS TAF 2018/12/14 22:04 UTC NOAA

TAF
AMD KMSS 142202Z 1422/1518 22005KT 4SM -SHRA SCT015 BKN035
TEMPO 1422/1501 1SM -RA BR BKN025
FM150100 22006KT P6SM OVC012
FM151400 29006KT P6SM BKN045 OVC070


Example: see airport list